createdAt,value
2023-04-24T00:00:46.036Z,9.30
2023-04-24T00:02:10.389Z,9.30
2023-04-24T00:03:34.008Z,9.40
2023-04-24T00:04:56.270Z,9.40
2023-04-24T00:06:18.454Z,9.40
2023-04-24T00:07:41.328Z,9.40
2023-04-24T00:09:06.871Z,9.50
2023-04-24T00:10:29.040Z,9.50
2023-04-24T00:11:51.221Z,9.50
2023-04-24T00:13:13.470Z,9.50
2023-04-24T00:14:36.094Z,9.50
2023-04-24T00:15:58.105Z,9.40
2023-04-24T00:17:23.416Z,9.40
2023-04-24T00:18:46.005Z,9.40
2023-04-24T00:20:08.475Z,9.40
2023-04-24T00:21:30.960Z,9.40
2023-04-24T00:22:53.071Z,9.40
2023-04-24T00:24:15.155Z,9.40
2023-04-24T00:25:37.181Z,9.40
2023-04-24T00:26:59.431Z,9.30
2023-04-24T00:28:21.473Z,9.30
2023-04-24T00:29:43.685Z,9.30
2023-04-24T00:31:06.025Z,9.30
2023-04-24T00:32:28.120Z,9.30
2023-04-24T00:33:50.216Z,9.30
2023-04-24T00:35:12.338Z,9.30
2023-04-24T00:36:34.419Z,9.30
2023-04-24T00:37:56.514Z,9.30
2023-04-24T00:39:19.373Z,9.30
2023-04-24T00:40:41.492Z,9.30
2023-04-24T00:42:03.647Z,9.30
2023-04-24T00:43:25.889Z,9.30
2023-04-24T00:44:48.444Z,9.30
2023-04-24T00:46:10.550Z,9.30
2023-04-24T00:47:34.412Z,9.30
2023-04-24T00:48:57.591Z,9.30
2023-04-24T00:50:20.570Z,9.30
2023-04-24T00:51:46.447Z,9.30
2023-04-24T00:53:08.527Z,9.30
2023-04-24T00:54:30.538Z,9.30
2023-04-24T00:55:52.772Z,9.30
2023-04-24T00:57:16.262Z,9.30
2023-04-24T00:58:38.903Z,9.30
2023-04-24T01:00:00.964Z,9.30
2023-04-24T01:01:23.539Z,9.30
2023-04-24T01:02:46.826Z,9.30
2023-04-24T01:04:11.102Z,9.30
2023-04-24T01:05:33.774Z,9.30
2023-04-24T01:06:56.949Z,9.30
2023-04-24T01:08:19.694Z,9.30
2023-04-24T01:09:45.163Z,9.30
2023-04-24T01:11:07.412Z,9.30
2023-04-24T01:12:29.467Z,9.30
2023-04-24T01:13:51.539Z,9.30
2023-04-24T01:15:13.592Z,9.40
2023-04-24T01:16:36.716Z,9.40
2023-04-24T01:17:58.858Z,9.40
2023-04-24T01:19:20.999Z,9.40
2023-04-24T01:20:45.207Z,9.40
2023-04-24T01:22:13.509Z,9.40
2023-04-24T01:23:35.892Z,9.40
2023-04-24T01:24:58.198Z,9.40
2023-04-24T01:26:21.095Z,9.40
2023-04-24T01:27:43.266Z,9.40
2023-04-24T01:29:05.393Z,9.40
2023-04-24T01:30:28.368Z,9.40
2023-04-24T01:31:50.440Z,9.40
2023-04-24T01:33:12.951Z,9.40
2023-04-24T01:34:35.445Z,9.40
2023-04-24T01:35:57.912Z,9.40
2023-04-24T01:37:19.950Z,9.40
2023-04-24T01:38:42.239Z,9.40
2023-04-24T01:40:09.270Z,9.40
2023-04-24T01:41:31.539Z,9.40
2023-04-24T01:42:53.883Z,9.30
2023-04-24T01:44:16.513Z,9.30
2023-04-24T01:45:38.557Z,9.30
2023-04-24T01:47:02.090Z,9.30
2023-04-24T01:48:24.281Z,9.30
2023-04-24T01:49:48.749Z,9.30
2023-04-24T01:51:10.775Z,9.30
2023-04-24T01:52:34.249Z,9.30
2023-04-24T01:53:56.768Z,9.40
2023-04-24T01:55:19.119Z,9.40
2023-04-24T01:56:44.780Z,9.40
2023-04-24T01:58:07.042Z,9.40
2023-04-24T01:59:29.896Z,9.40
2023-04-24T02:00:51.948Z,9.40
2023-04-24T02:02:14.107Z,9.40
2023-04-24T02:03:36.264Z,9.40
2023-04-24T02:04:58.532Z,9.40
2023-04-24T02:06:20.628Z,9.50
2023-04-24T02:07:42.667Z,9.50
2023-04-24T02:09:04.781Z,9.50
2023-04-24T02:10:26.837Z,9.50
2023-04-24T02:11:48.919Z,9.50
2023-04-24T02:13:11.170Z,9.50
2023-04-24T02:14:33.358Z,9.50
2023-04-24T02:15:55.511Z,9.50
2023-04-24T02:17:17.837Z,9.50
2023-04-24T02:18:39.975Z,9.50
2023-04-24T02:20:02.047Z,9.50
2023-04-24T02:21:24.087Z,9.50
2023-04-24T02:22:46.228Z,9.50
2023-04-24T02:24:08.262Z,9.50
2023-04-24T02:25:30.430Z,9.50
2023-04-24T02:26:52.545Z,9.50
2023-04-24T02:28:14.631Z,9.60
2023-04-24T02:29:36.733Z,9.60
2023-04-24T02:30:59.529Z,9.60
2023-04-24T02:32:21.560Z,9.60
2023-04-24T02:33:43.597Z,9.60
2023-04-24T02:35:06.088Z,9.60
2023-04-24T02:36:28.191Z,9.60
2023-04-24T02:37:50.271Z,9.60
2023-04-24T02:39:12.329Z,9.60
2023-04-24T02:40:34.339Z,9.60
2023-04-24T02:41:56.329Z,9.60
2023-04-24T02:43:18.421Z,9.60
2023-04-24T02:44:40.530Z,9.60
2023-04-24T02:46:02.631Z,9.60
2023-04-24T02:47:24.790Z,9.60
2023-04-24T02:48:46.999Z,9.60
2023-04-24T02:50:09.327Z,9.60
2023-04-24T02:51:31.911Z,9.60
2023-04-24T02:52:53.984Z,9.60
2023-04-24T02:54:16.007Z,9.70
2023-04-24T02:55:38.021Z,9.70
2023-04-24T02:57:00.132Z,9.70
2023-04-24T02:58:22.173Z,9.70
2023-04-24T02:59:44.794Z,9.70
2023-04-24T03:01:07.076Z,9.70
2023-04-24T03:02:29.338Z,9.80
2023-04-24T03:03:51.563Z,9.80
2023-04-24T03:05:13.617Z,9.80
2023-04-24T03:06:36.498Z,9.80
2023-04-24T03:07:58.737Z,9.80
2023-04-24T03:09:20.771Z,9.80
2023-04-24T03:10:42.778Z,9.80
2023-04-24T03:12:04.845Z,9.90
2023-04-24T03:13:27.049Z,9.80
2023-04-24T03:14:49.046Z,9.80
2023-04-24T03:16:11.093Z,9.80
2023-04-24T03:17:33.633Z,9.80
2023-04-24T03:18:55.954Z,9.80
2023-04-24T03:20:18.003Z,9.80
2023-04-24T03:21:41.659Z,9.80
2023-04-24T03:23:03.960Z,9.80
2023-04-24T03:24:28.935Z,9.80
2023-04-24T03:25:50.982Z,9.80
2023-04-24T03:27:12.995Z,9.70
2023-04-24T03:28:35.127Z,9.70
2023-04-24T03:29:57.297Z,9.70
2023-04-24T03:31:20.201Z,9.70
2023-04-24T03:32:42.298Z,9.70
2023-04-24T03:34:04.356Z,9.80
2023-04-24T03:35:26.387Z,9.80
2023-04-24T03:36:51.117Z,9.80
2023-04-24T03:38:13.142Z,9.80
2023-04-24T03:39:35.229Z,9.90
2023-04-24T03:40:57.310Z,9.90
2023-04-24T03:42:19.498Z,9.90
2023-04-24T03:43:41.563Z,9.90
2023-04-24T03:45:04.006Z,9.90
2023-04-24T03:46:26.111Z,10.00
2023-04-24T03:47:48.206Z,10.00
2023-04-24T03:49:10.272Z,10.00
2023-04-24T03:51:36.377Z,10.00
2023-04-24T03:52:58.825Z,10.10
2023-04-24T03:54:21.195Z,10.10
2023-04-24T03:55:43.497Z,10.10
2023-04-24T03:57:05.812Z,10.10
2023-04-24T03:58:27.887Z,10.10
2023-04-24T03:59:49.919Z,10.10
2023-04-24T04:01:13.117Z,10.10
2023-04-24T04:02:35.461Z,10.20
2023-04-24T04:03:57.825Z,10.20
2023-04-24T04:05:20.415Z,10.30
2023-04-24T04:06:43.292Z,10.30
2023-04-24T04:08:05.357Z,10.30
2023-04-24T04:09:27.581Z,10.40
2023-04-24T04:10:49.635Z,10.50
2023-04-24T04:12:11.685Z,10.50
2023-04-24T04:13:33.821Z,10.60
2023-04-24T04:14:55.962Z,10.60
2023-04-24T04:16:18.507Z,10.70
2023-04-24T04:17:40.753Z,10.70
2023-04-24T04:19:03.981Z,10.80
2023-04-24T04:20:26.275Z,10.90
2023-04-24T04:21:53.060Z,11.00
2023-04-24T04:23:15.159Z,11.10
2023-04-24T04:24:39.018Z,11.40
2023-04-24T04:26:01.270Z,11.80
2023-04-24T04:27:23.426Z,12.30
2023-04-24T04:28:45.511Z,12.70
2023-04-24T04:30:09.422Z,13.00
2023-04-24T04:31:32.311Z,13.50
2023-04-24T04:32:54.418Z,14.00
2023-04-24T04:34:16.502Z,14.50
2023-04-24T04:35:38.543Z,15.00
2023-04-24T04:37:02.569Z,15.40
2023-04-24T04:38:24.693Z,15.60
2023-04-24T04:39:46.699Z,15.70
2023-04-24T04:41:08.689Z,15.50
2023-04-24T04:42:31.460Z,15.20
2023-04-24T04:43:53.800Z,14.70
2023-04-24T04:45:18.174Z,14.30
2023-04-24T04:46:40.305Z,13.90
2023-04-24T04:48:03.374Z,13.50
2023-04-24T04:49:25.461Z,13.20
2023-04-24T04:50:47.545Z,12.90
2023-04-24T04:52:10.098Z,12.70
2023-04-24T04:53:32.142Z,12.50
2023-04-24T04:54:54.239Z,12.40
2023-04-24T04:56:16.297Z,12.30
2023-04-24T04:57:38.333Z,12.10
2023-04-24T04:59:00.419Z,12.10
2023-04-24T05:00:22.721Z,12.10
2023-04-24T05:01:44.826Z,12.00
2023-04-24T05:03:20.012Z,12.00
2023-04-24T05:04:43.980Z,12.00
2023-04-24T05:06:06.821Z,12.00
2023-04-24T05:07:28.820Z,12.00
2023-04-24T05:08:52.071Z,12.00
2023-04-24T05:10:14.132Z,11.90
2023-04-24T05:11:36.192Z,11.90
2023-04-24T05:12:58.235Z,11.80
2023-04-24T05:14:20.413Z,11.80
2023-04-24T05:15:42.496Z,11.80
2023-04-24T05:17:04.944Z,11.90
2023-04-24T05:18:27.080Z,11.90
2023-04-24T05:19:49.221Z,11.90
2023-04-24T05:21:11.301Z,11.90
2023-04-24T05:22:33.428Z,12.00
2023-04-24T05:23:55.572Z,12.00
2023-04-24T05:25:17.681Z,12.00
2023-04-24T05:26:39.733Z,12.00
2023-04-24T05:28:02.262Z,12.00
2023-04-24T05:29:24.357Z,12.00
2023-04-24T05:30:46.447Z,12.00
2023-04-24T05:32:08.505Z,12.00
2023-04-24T05:33:31.030Z,12.00
2023-04-24T05:34:53.062Z,12.00
2023-04-24T05:36:15.502Z,12.00
2023-04-24T05:37:37.650Z,12.00
2023-04-24T05:38:59.672Z,12.00
2023-04-24T05:40:21.838Z,12.00
2023-04-24T05:41:44.402Z,12.00
2023-04-24T05:43:06.551Z,12.00
2023-04-24T05:44:28.583Z,12.00
2023-04-24T05:45:50.690Z,12.00
2023-04-24T05:47:12.811Z,12.00
2023-04-24T05:48:34.931Z,12.00
2023-04-24T05:49:57.003Z,12.00
2023-04-24T05:51:19.061Z,12.00
2023-04-24T05:52:41.122Z,12.00
2023-04-24T05:54:04.201Z,12.00
2023-04-24T05:55:26.867Z,12.10
2023-04-24T05:56:49.878Z,12.10
2023-04-24T05:58:13.222Z,12.20
2023-04-24T05:59:38.391Z,12.30
2023-04-24T06:01:02.282Z,12.40
2023-04-24T06:02:24.525Z,12.40
2023-04-24T06:03:47.027Z,12.50
2023-04-24T06:05:09.531Z,12.60
2023-04-24T06:06:32.413Z,12.60
2023-04-24T06:07:54.496Z,12.70
2023-04-24T06:09:17.904Z,12.70
2023-04-24T06:10:39.966Z,12.80
2023-04-24T06:12:02.085Z,12.80
2023-04-24T06:13:24.130Z,12.80
2023-04-24T06:14:46.402Z,12.90
2023-04-24T06:16:08.673Z,12.90
2023-04-24T06:17:31.906Z,13.00
2023-04-24T06:18:53.977Z,12.90
2023-04-24T06:20:16.210Z,12.90
2023-04-24T06:21:38.283Z,12.80
2023-04-24T06:23:00.370Z,12.80
2023-04-24T06:24:22.419Z,12.80
2023-04-24T06:25:44.603Z,12.70
2023-04-24T06:27:06.781Z,12.70
2023-04-24T06:28:29.158Z,12.60
2023-04-24T06:29:55.339Z,12.60
2023-04-24T06:31:17.642Z,12.60
2023-04-24T06:32:39.710Z,12.60
2023-04-24T06:34:02.992Z,12.60
2023-04-24T06:35:25.057Z,12.70
2023-04-24T06:36:48.272Z,12.70
2023-04-24T06:38:10.575Z,12.70
2023-04-24T06:39:32.624Z,12.80
2023-04-24T06:40:54.913Z,12.90
2023-04-24T06:42:17.010Z,13.00
2023-04-24T06:43:39.098Z,13.10
2023-04-24T06:45:01.437Z,13.10
2023-04-24T06:46:26.829Z,13.20
2023-04-24T06:47:48.991Z,13.10
2023-04-24T06:49:11.203Z,13.20
2023-04-24T06:50:33.526Z,13.20
2023-04-24T06:51:55.571Z,13.20
2023-04-24T06:53:18.029Z,13.30
2023-04-24T06:54:40.098Z,13.30
2023-04-24T06:56:02.280Z,13.40
2023-04-24T06:57:24.384Z,13.50
2023-04-24T06:58:46.675Z,13.60
2023-04-24T07:00:10.348Z,13.60
2023-04-24T07:01:32.524Z,13.60
2023-04-24T07:02:54.655Z,13.70
2023-04-24T07:04:17.163Z,13.70
2023-04-24T07:05:39.465Z,13.80
2023-04-24T07:07:01.978Z,13.90
2023-04-24T07:08:24.136Z,14.00
2023-04-24T07:09:46.958Z,14.10
2023-04-24T07:11:09.070Z,14.30
2023-04-24T07:12:31.128Z,14.50
2023-04-24T07:13:53.182Z,14.70
2023-04-24T07:15:15.344Z,14.80
2023-04-24T07:16:37.704Z,14.90
2023-04-24T07:17:59.962Z,15.10
2023-04-24T07:19:22.160Z,15.20
2023-04-24T07:20:44.272Z,15.30
2023-04-24T07:22:06.502Z,15.40
2023-04-24T07:23:28.728Z,15.50
2023-04-24T07:24:50.853Z,15.60
2023-04-24T07:26:13.445Z,15.70
2023-04-24T07:27:36.885Z,15.80
2023-04-24T07:28:59.001Z,15.90
2023-04-24T07:30:21.175Z,16.00
2023-04-24T07:31:43.350Z,16.00
2023-04-24T07:33:05.821Z,16.00
2023-04-24T07:34:27.946Z,16.10
2023-04-24T07:35:50.048Z,16.30
2023-04-24T07:37:12.186Z,16.30
2023-04-24T07:38:34.457Z,16.40
2023-04-24T07:39:56.831Z,16.60
2023-04-24T07:41:18.895Z,16.70
2023-04-24T07:42:41.622Z,16.80
2023-04-24T07:44:03.759Z,17.00
2023-04-24T07:45:27.129Z,17.10
2023-04-24T07:46:49.379Z,17.30
2023-04-24T07:48:11.679Z,17.30
2023-04-24T07:49:35.790Z,17.50
2023-04-24T07:50:57.851Z,17.50
2023-04-24T07:52:19.898Z,17.60
2023-04-24T07:53:42.861Z,17.60
2023-04-24T07:55:05.862Z,17.70
2023-04-24T07:56:28.141Z,17.70
2023-04-24T07:57:50.428Z,17.80
2023-04-24T07:59:12.606Z,17.90
2023-04-24T08:00:34.639Z,18.00
2023-04-24T08:01:56.734Z,18.00
2023-04-24T08:03:20.948Z,17.90
2023-04-24T08:04:43.521Z,17.80
2023-04-24T08:06:06.277Z,17.90
2023-04-24T08:07:28.364Z,17.90
2023-04-24T08:08:50.554Z,18.00
2023-04-24T08:10:12.853Z,18.00
2023-04-24T08:11:34.995Z,17.80
2023-04-24T08:12:57.636Z,17.80
2023-04-24T08:14:19.776Z,17.70
2023-04-24T08:15:42.261Z,17.70
2023-04-24T08:17:04.382Z,17.70
2023-04-24T08:18:27.345Z,17.60
2023-04-24T08:19:49.678Z,17.50
2023-04-24T08:21:13.881Z,17.40
2023-04-24T08:22:36.031Z,17.30
2023-04-24T08:23:58.077Z,17.20
2023-04-24T08:25:20.232Z,17.20
2023-04-24T08:26:42.486Z,17.10
2023-04-24T08:28:06.684Z,17.10
2023-04-24T08:29:28.920Z,17.10
2023-04-24T08:30:55.460Z,17.10
2023-04-24T08:32:18.093Z,17.10
2023-04-24T08:33:41.892Z,17.10
2023-04-24T08:35:04.540Z,17.10
2023-04-24T08:36:35.916Z,17.20
2023-04-24T08:38:06.181Z,17.20
2023-04-24T08:39:28.400Z,17.30
2023-04-24T08:40:50.628Z,17.50
2023-04-24T08:42:13.975Z,17.70
2023-04-24T08:43:37.508Z,17.80
2023-04-24T08:44:59.608Z,18.00
2023-04-24T08:46:23.048Z,18.10
2023-04-24T08:47:46.289Z,18.20
2023-04-24T08:49:08.394Z,18.30
2023-04-24T08:50:31.284Z,18.40
2023-04-24T08:51:53.772Z,18.60
2023-04-24T08:53:16.462Z,18.80
2023-04-24T08:54:39.783Z,18.80
2023-04-24T08:56:02.962Z,18.90
2023-04-24T08:57:27.109Z,18.90
2023-04-24T08:58:49.383Z,19.00
2023-04-24T09:00:12.669Z,19.10
2023-04-24T09:01:38.414Z,19.30
2023-04-24T09:03:02.540Z,19.60
2023-04-24T09:04:26.084Z,19.90
2023-04-24T09:05:51.264Z,19.90
2023-04-24T09:07:15.207Z,19.90
2023-04-24T09:08:37.414Z,19.70
2023-04-24T09:10:00.275Z,19.40
2023-04-24T09:11:25.246Z,19.20
2023-04-24T09:12:47.987Z,19.10
2023-04-24T09:14:11.294Z,19.00
2023-04-24T09:15:33.375Z,19.10
2023-04-24T09:16:55.555Z,19.10
2023-04-24T09:18:18.595Z,19.00
2023-04-24T09:19:42.029Z,19.00
2023-04-24T09:21:07.465Z,18.90
2023-04-24T09:22:33.173Z,18.90
2023-04-24T09:24:04.306Z,18.90
2023-04-24T09:25:34.533Z,18.80
2023-04-24T09:26:59.673Z,18.60
2023-04-24T09:28:33.695Z,18.60
2023-04-24T09:29:56.839Z,18.50
2023-04-24T09:31:22.988Z,18.50
2023-04-24T09:32:45.214Z,18.60
2023-04-24T09:34:08.180Z,18.70
2023-04-24T09:35:33.017Z,18.70
2023-04-24T09:36:56.065Z,18.70
2023-04-24T09:38:18.377Z,18.80
2023-04-24T09:39:41.417Z,18.70
2023-04-24T09:41:06.068Z,18.60
2023-04-24T09:42:30.505Z,18.40
2023-04-24T09:43:54.904Z,18.40
2023-04-24T09:45:17.690Z,18.60
2023-04-24T09:46:39.847Z,18.80
2023-04-24T09:48:02.250Z,19.20
2023-04-24T09:49:26.686Z,19.40
2023-04-24T09:51:00.327Z,19.50
2023-04-24T09:52:22.399Z,19.40
2023-04-24T09:53:48.477Z,19.50
2023-04-24T09:55:19.763Z,19.40
2023-04-24T09:56:47.296Z,19.40
2023-04-24T09:58:09.635Z,19.30
2023-04-24T09:59:32.014Z,19.20
2023-04-24T10:00:57.988Z,19.20
2023-04-24T10:02:21.090Z,19.30
2023-04-24T10:03:44.014Z,19.50
2023-04-24T10:05:06.804Z,19.70
2023-04-24T10:06:34.645Z,19.90
2023-04-24T10:08:07.033Z,20.00
2023-04-24T10:09:29.022Z,20.00
2023-04-24T10:10:51.064Z,20.00
2023-04-24T10:12:14.247Z,19.90
2023-04-24T10:13:37.021Z,20.00
2023-04-24T10:14:59.990Z,19.90
2023-04-24T10:16:23.344Z,19.70
2023-04-24T10:17:46.987Z,19.50
2023-04-24T10:19:09.385Z,19.60
2023-04-24T10:20:32.030Z,19.70
2023-04-24T10:21:55.628Z,19.80
2023-04-24T10:23:20.260Z,20.00
2023-04-24T10:24:43.394Z,20.00
2023-04-24T10:26:05.806Z,20.10
2023-04-24T10:27:29.396Z,20.20
2023-04-24T10:28:51.724Z,20.30
2023-04-24T10:30:14.997Z,20.40
2023-04-24T10:31:39.066Z,20.50
2023-04-24T10:33:01.606Z,20.60
2023-04-24T10:34:25.064Z,20.80
2023-04-24T10:35:49.951Z,20.90
2023-04-24T10:37:12.077Z,20.90
2023-04-24T10:38:35.616Z,20.90
2023-04-24T10:39:57.978Z,20.90
2023-04-24T10:41:26.576Z,20.80
2023-04-24T10:42:49.995Z,20.90
2023-04-24T10:44:14.379Z,21.10
2023-04-24T10:45:36.906Z,21.20
2023-04-24T10:46:59.041Z,21.40
2023-04-24T10:48:27.986Z,21.50
2023-04-24T10:49:51.935Z,21.70
2023-04-24T10:53:05.482Z,21.90
2023-04-24T10:54:29.369Z,21.80
2023-04-24T10:56:00.117Z,21.70
2023-04-24T10:57:25.476Z,21.60
2023-04-24T10:58:53.344Z,21.40
2023-04-24T11:00:15.564Z,21.10
2023-04-24T11:01:39.536Z,20.80
2023-04-24T11:03:01.703Z,20.60
2023-04-24T11:04:32.274Z,20.40
2023-04-24T11:06:06.192Z,20.10
2023-04-24T11:07:28.282Z,19.90
2023-04-24T11:08:51.201Z,19.80
2023-04-24T11:10:29.138Z,19.80
2023-04-24T11:11:51.332Z,20.00
2023-04-24T11:13:18.120Z,20.10
2023-04-24T11:15:11.159Z,20.40
2023-04-24T11:16:37.104Z,20.70
2023-04-24T11:17:59.320Z,21.00
2023-04-24T11:19:29.648Z,21.30
2023-04-24T11:20:55.267Z,21.50
2023-04-24T11:22:18.971Z,21.60
2023-04-24T11:23:41.967Z,21.60
2023-04-24T11:25:05.306Z,21.70
2023-04-24T11:26:33.187Z,21.50
2023-04-24T11:28:06.248Z,21.40
2023-04-24T11:29:43.915Z,21.30
2023-04-24T11:31:41.996Z,21.10
2023-04-24T11:33:05.585Z,21.00
2023-04-24T11:34:27.803Z,21.10
2023-04-24T11:35:52.010Z,21.30
2023-04-24T11:37:14.753Z,21.60
2023-04-24T11:38:36.839Z,21.80
2023-04-24T11:40:00.682Z,21.90
2023-04-24T11:41:23.240Z,21.90
2023-04-24T11:42:47.145Z,21.80
2023-04-24T11:44:10.380Z,22.00
2023-04-24T11:45:32.624Z,22.20
2023-04-24T11:46:57.284Z,22.30
2023-04-24T11:48:23.184Z,22.50
2023-04-24T11:49:45.934Z,22.50
2023-04-24T11:51:08.093Z,22.50
2023-04-24T11:52:31.138Z,22.30
2023-04-24T11:54:03.687Z,22.20
2023-04-24T11:55:28.589Z,22.10
2023-04-24T11:56:50.774Z,22.00
2023-04-24T11:58:12.844Z,21.90
2023-04-24T11:59:38.847Z,21.90
2023-04-24T12:01:02.144Z,21.90
2023-04-24T12:02:28.564Z,22.00
2023-04-24T12:03:52.386Z,22.20
2023-04-24T12:05:28.234Z,22.20
2023-04-24T12:07:04.623Z,22.60
2023-04-24T12:08:30.284Z,22.70
2023-04-24T12:10:00.956Z,22.80
2023-04-24T12:11:23.294Z,22.80
2023-04-24T12:12:47.492Z,22.70
2023-04-24T12:14:13.314Z,22.60
2023-04-24T12:15:35.556Z,22.60
2023-04-24T12:16:58.155Z,22.60
2023-04-24T12:18:22.916Z,22.70
2023-04-24T12:19:49.102Z,22.60
2023-04-24T12:21:23.199Z,22.50
2023-04-24T12:23:00.264Z,22.40
2023-04-24T12:24:22.503Z,22.30
2023-04-24T12:25:44.630Z,22.30
2023-04-24T12:27:06.710Z,22.40
2023-04-24T12:28:39.200Z,22.40
2023-04-24T12:30:03.301Z,22.40
2023-04-24T12:31:25.571Z,22.10
2023-04-24T12:32:49.430Z,22.10
2023-04-24T12:34:22.115Z,22.10
2023-04-24T12:35:44.108Z,22.20
2023-04-24T12:37:14.850Z,22.20
2023-04-24T12:38:41.582Z,22.20
2023-04-24T12:40:09.436Z,22.10
2023-04-24T12:41:32.025Z,22.00
2023-04-24T12:42:55.229Z,21.80
2023-04-24T12:44:19.547Z,21.70
2023-04-24T12:45:41.687Z,21.60
2023-04-24T12:47:04.097Z,21.50
2023-04-24T12:48:29.905Z,21.40
2023-04-24T12:49:53.280Z,21.40
2023-04-24T12:51:15.992Z,21.30
2023-04-24T12:52:38.856Z,21.20
2023-04-24T12:54:00.954Z,21.30
2023-04-24T12:55:23.141Z,21.30
2023-04-24T12:56:45.324Z,21.30
2023-04-24T12:58:07.341Z,21.40
2023-04-24T12:59:29.395Z,21.40
2023-04-24T13:00:51.902Z,21.40
2023-04-24T13:02:14.119Z,21.40
2023-04-24T13:03:36.881Z,21.20
2023-04-24T13:04:59.856Z,21.10
2023-04-24T13:06:22.220Z,21.00
2023-04-24T13:07:44.230Z,20.90
2023-04-24T13:09:06.253Z,20.90
2023-04-24T13:10:28.779Z,20.80
2023-04-24T13:11:51.486Z,20.80
2023-04-24T13:13:13.920Z,20.70
2023-04-24T13:14:36.478Z,20.60
2023-04-24T13:15:58.685Z,20.40
2023-04-24T13:17:21.145Z,20.30
2023-04-24T13:18:43.319Z,20.30
2023-04-24T13:20:05.941Z,20.20
2023-04-24T13:21:28.594Z,20.10
2023-04-24T13:22:50.737Z,20.00
2023-04-24T13:24:14.254Z,20.00
2023-04-24T13:25:38.320Z,19.90
2023-04-24T13:27:01.738Z,19.80
2023-04-24T13:28:25.988Z,19.60
2023-04-24T13:29:48.045Z,19.50
2023-04-24T13:31:10.652Z,19.50
2023-04-24T13:32:34.455Z,19.40
2023-04-24T13:33:56.569Z,19.30
2023-04-24T13:35:18.643Z,19.30
2023-04-24T13:36:40.929Z,19.30
2023-04-24T13:38:06.837Z,19.50
2023-04-24T13:39:28.876Z,19.60
2023-04-24T13:40:51.041Z,19.60
2023-04-24T13:42:13.719Z,19.70
2023-04-24T13:43:36.101Z,19.70
2023-04-24T13:44:58.134Z,19.80
2023-04-24T13:46:21.285Z,19.80
2023-04-24T13:47:43.487Z,19.80
2023-04-24T13:49:05.690Z,19.90
2023-04-24T13:50:27.757Z,19.90
2023-04-24T13:51:50.034Z,19.90
2023-04-24T13:53:12.074Z,19.90
2023-04-24T13:54:34.136Z,19.90
2023-04-24T13:55:56.262Z,19.80
2023-04-24T13:57:18.539Z,19.60
2023-04-24T13:58:40.851Z,19.40
2023-04-24T14:00:05.139Z,19.20
2023-04-24T14:01:27.860Z,19.20
2023-04-24T14:02:50.271Z,18.90
2023-04-24T14:04:13.414Z,18.80
2023-04-24T14:05:37.793Z,18.70
2023-04-24T14:07:01.298Z,18.60
2023-04-24T14:08:23.453Z,18.60
2023-04-24T14:09:45.555Z,18.50
2023-04-24T14:11:07.993Z,18.40
2023-04-24T14:12:30.050Z,18.40
2023-04-24T14:13:52.149Z,18.50
2023-04-24T14:15:14.483Z,18.50
2023-04-24T14:16:36.722Z,18.60
2023-04-24T14:17:59.023Z,18.60
2023-04-24T14:19:21.823Z,18.50
2023-04-24T14:20:43.862Z,18.30
2023-04-24T14:22:05.896Z,18.10
2023-04-24T14:23:28.327Z,18.00
2023-04-24T14:24:50.527Z,17.90
2023-04-24T14:26:12.652Z,17.70
2023-04-24T14:27:35.667Z,17.70
2023-04-24T14:29:11.665Z,17.70
2023-04-24T14:30:38.414Z,17.70
2023-04-24T14:32:00.748Z,17.60
2023-04-24T14:33:23.000Z,17.60
2023-04-24T14:34:45.137Z,17.50
2023-04-24T14:36:07.402Z,17.50
2023-04-24T14:37:29.447Z,17.50
2023-04-24T14:38:51.554Z,17.40
2023-04-24T14:40:29.845Z,17.50
2023-04-24T14:41:56.149Z,17.50
2023-04-24T14:43:18.179Z,17.50
2023-04-24T14:44:40.342Z,17.40
2023-04-24T14:46:03.113Z,17.40
2023-04-24T14:47:25.369Z,17.40
2023-04-24T14:48:48.029Z,17.50
2023-04-24T14:50:10.274Z,17.60
2023-04-24T14:51:32.376Z,17.70
2023-04-24T14:52:58.604Z,17.70
2023-04-24T14:54:20.799Z,17.80
2023-04-24T14:55:42.980Z,17.90
2023-04-24T14:57:05.059Z,17.90
2023-04-24T14:58:27.195Z,17.80
2023-04-24T14:59:49.211Z,17.70
2023-04-24T15:01:11.963Z,17.60
2023-04-24T15:02:34.666Z,17.50
2023-04-24T15:03:56.890Z,17.40
2023-04-24T15:05:19.556Z,17.40
2023-04-24T15:06:41.798Z,17.30
2023-04-24T15:08:03.855Z,17.20
2023-04-24T15:09:26.540Z,17.20
2023-04-24T15:10:49.163Z,17.20
2023-04-24T15:12:13.253Z,17.20
2023-04-24T15:13:35.381Z,17.20
2023-04-24T15:14:59.018Z,17.20
2023-04-24T15:16:21.483Z,17.30
2023-04-24T15:17:43.640Z,17.30
2023-04-24T15:19:05.813Z,17.30
2023-04-24T15:20:27.824Z,17.30
2023-04-24T15:21:49.873Z,17.40
2023-04-24T15:23:12.112Z,17.40
2023-04-24T15:24:34.173Z,17.40
2023-04-24T15:25:56.959Z,17.50
2023-04-24T15:27:19.055Z,17.40
2023-04-24T15:28:41.085Z,17.40
2023-04-24T15:30:03.424Z,17.40
2023-04-24T15:31:25.569Z,17.40
2023-04-24T15:32:47.707Z,17.40
2023-04-24T15:34:09.840Z,17.30
2023-04-24T15:35:31.935Z,17.30
2023-04-24T15:36:54.004Z,17.30
2023-04-24T15:38:16.119Z,17.40
2023-04-24T15:39:38.212Z,17.40
2023-04-24T15:41:00.258Z,17.40
2023-04-24T15:42:22.361Z,17.40
2023-04-24T15:43:44.709Z,17.50
2023-04-24T15:45:07.512Z,17.60
2023-04-24T15:46:29.786Z,17.80
2023-04-24T15:47:52.080Z,18.00
2023-04-24T15:49:14.308Z,18.10
2023-04-24T15:50:36.406Z,18.30
2023-04-24T15:51:58.540Z,18.50
2023-04-24T15:53:23.259Z,18.50
2023-04-24T15:54:45.395Z,18.60
2023-04-24T15:56:07.611Z,18.60
2023-04-24T15:57:29.702Z,18.70
2023-04-24T15:58:51.822Z,18.70
2023-04-24T16:00:14.410Z,18.80
2023-04-24T16:01:36.605Z,18.90
2023-04-24T16:02:58.754Z,18.90
2023-04-24T16:04:21.119Z,18.90
2023-04-24T16:05:43.318Z,18.90
2023-04-24T16:07:11.980Z,18.90
2023-04-24T16:08:35.096Z,18.90
2023-04-24T16:09:57.314Z,19.00
2023-04-24T16:11:19.612Z,18.90
2023-04-24T16:12:41.919Z,18.80
2023-04-24T16:14:03.955Z,18.80
2023-04-24T16:15:26.208Z,18.80
2023-04-24T16:16:48.411Z,18.80
2023-04-24T16:18:10.698Z,18.70
2023-04-24T16:19:34.518Z,18.70
2023-04-24T16:20:57.061Z,18.50
2023-04-24T16:22:19.097Z,18.40
2023-04-24T16:23:42.264Z,18.30
2023-04-24T16:25:04.677Z,18.20
2023-04-24T16:26:26.904Z,18.10
2023-04-24T16:27:52.550Z,18.00
2023-04-24T16:29:15.560Z,17.90
2023-04-24T16:30:39.508Z,17.80
2023-04-24T16:32:01.552Z,17.70
2023-04-24T16:33:26.174Z,17.60
2023-04-24T16:34:48.271Z,17.50
2023-04-24T16:36:10.862Z,17.30
2023-04-24T16:37:33.093Z,17.20
2023-04-24T16:38:55.353Z,17.20
2023-04-24T16:40:18.498Z,17.20
2023-04-24T16:41:40.878Z,17.20
2023-04-24T16:43:03.004Z,17.10
2023-04-24T16:44:25.366Z,17.10
2023-04-24T16:45:47.426Z,17.10
2023-04-24T16:47:11.727Z,17.10
2023-04-24T16:48:34.221Z,17.00
2023-04-24T16:49:56.538Z,17.00
2023-04-24T16:51:18.731Z,17.10
2023-04-24T16:52:41.031Z,17.10
2023-04-24T16:54:03.236Z,17.00
2023-04-24T16:55:25.390Z,17.00
2023-04-24T16:56:47.468Z,16.90
2023-04-24T16:58:09.591Z,16.80
2023-04-24T16:59:33.930Z,16.70
2023-04-24T17:00:56.501Z,16.70
2023-04-24T17:02:18.730Z,16.60
2023-04-24T17:03:41.742Z,16.50
2023-04-24T17:05:04.138Z,16.50
2023-04-24T17:06:26.414Z,16.30
2023-04-24T17:07:48.781Z,16.30
2023-04-24T17:09:12.964Z,16.10
2023-04-24T17:10:35.006Z,16.00
2023-04-24T17:11:57.111Z,16.00
2023-04-24T17:13:19.196Z,15.90
2023-04-24T17:14:41.591Z,15.90
2023-04-24T17:16:03.793Z,15.80
2023-04-24T17:17:26.199Z,15.70
2023-04-24T17:18:49.132Z,15.70
2023-04-24T17:20:22.084Z,15.60
2023-04-24T17:21:45.875Z,15.50
2023-04-24T17:23:11.901Z,15.40
2023-04-24T17:24:34.240Z,15.40
2023-04-24T17:25:59.326Z,15.30
2023-04-24T17:27:21.882Z,15.30
2023-04-24T17:28:44.722Z,15.30
2023-04-24T17:30:09.231Z,15.20
2023-04-24T17:31:31.450Z,15.20
2023-04-24T17:32:53.610Z,15.20
2023-04-24T17:34:15.721Z,15.10
2023-04-24T17:35:37.881Z,15.10
2023-04-24T17:37:00.004Z,15.10
2023-04-24T17:38:22.080Z,15.10
2023-04-24T17:39:44.125Z,15.10
2023-04-24T17:41:07.050Z,15.10
2023-04-24T17:42:29.119Z,15.10
2023-04-24T17:43:51.307Z,15.20
2023-04-24T17:45:13.486Z,15.20
2023-04-24T17:46:35.722Z,15.20
2023-04-24T17:47:57.980Z,15.20
2023-04-24T17:49:20.045Z,15.20
2023-04-24T17:50:42.781Z,15.20
2023-04-24T17:52:05.677Z,15.20
2023-04-24T17:53:27.819Z,15.20
2023-04-24T17:54:49.920Z,15.20
2023-04-24T17:56:12.357Z,15.20
2023-04-24T17:57:34.461Z,15.20
2023-04-24T17:58:58.195Z,15.20
2023-04-24T18:00:20.372Z,15.10
2023-04-24T18:01:42.667Z,15.10